Time;durP1;ratioP1;P1;durP2;ratioP2;P2;SDS_P1;SDS_P2;PMS_P1;PMS_P2;Temp;Humidity;BMP_temperature;BMP_pressure;BME280_temperature;BME280_humidity;BME280_pressure;Samples;Min_cycle;Max_cycle;Signal;HPM_P1;HPM_P2
2021/11/23 00:00:39;;;;;;;19.30;17.30;;;;;;;;;;4956038;28;20222;-83
2021/11/23 00:03:07;;;;;;;19.87;14.73;;;;;;;;;;4955839;29;20234;-83
2021/11/23 00:05:34;;;;;;;16.33;14.33;;;;;;;;;;4956137;29;20217;-83
2021/11/23 00:08:02;;;;;;;17.37;15.50;;;;;;;;;;4955856;29;20198;-83
2021/11/23 00:10:29;;;;;;;17.37;15.57;;;;;;;;;;4955729;29;20202;-84
2021/11/23 00:12:57;;;;;;;17.93;15.97;;;;;;;;;;4955547;29;20213;-83
2021/11/23 00:15:26;;;;;;;15.83;14.20;;;;;;;;;;4955871;29;20253;-83
2021/11/23 00:17:53;;;;;;;18.47;15.77;;;;;;;;;;4955632;29;20670;-83
2021/11/23 00:20:20;;;;;;;18.03;16.20;;;;;;;;;;4955824;29;20629;-83
2021/11/23 00:22:47;;;;;;;21.00;17.53;;;;;;;;;;4955587;29;20233;-83
2021/11/23 00:25:14;;;;;;;21.13;17.17;;;;;;;;;;4955341;29;20205;-83
2021/11/23 00:27:42;;;;;;;18.20;16.30;;;;;;;;;;4955110;28;20596;-84
2021/11/23 00:30:10;;;;;;;17.73;15.43;;;;;;;;;;4955264;29;20296;-83
2021/11/23 00:32:39;;;;;;;17.73;15.83;;;;;;;;;;4955181;29;20678;-83
2021/11/23 00:35:06;;;;;;;19.43;16.60;;;;;;;;;;4955231;29;20209;-83
2021/11/23 00:37:34;;;;;;;20.67;17.23;;;;;;;;;;4955507;28;20202;-83
2021/11/23 00:40:01;;;;;;;18.50;16.33;;;;;;;;;;4955153;29;20210;-83
2021/11/23 00:42:28;;;;;;;20.80;16.23;;;;;;;;;;4955228;29;20601;-83
2021/11/23 00:44:56;;;;;;;18.40;16.00;;;;;;;;;;4955615;29;20198;-83
2021/11/23 00:47:23;;;;;;;18.93;15.83;;;;;;;;;;4955195;29;20202;-83
2021/11/23 00:49:52;;;;;;;18.93;16.27;;;;;;;;;;4954943;29;20216;-83
2021/11/23 00:52:19;;;;;;;17.97;16.03;;;;;;;;;;4955212;29;20201;-84
2021/11/23 00:54:47;;;;;;;18.70;16.70;;;;;;;;;;4954880;29;20206;-83
2021/11/23 00:57:14;;;;;;;19.67;15.67;;;;;;;;;;4955231;29;20666;-83
2021/11/23 00:59:41;;;;;;;17.03;15.13;;;;;;;;;;4955057;29;20210;-83
2021/11/23 01:02:08;;;;;;;20.43;16.73;;;;;;;;;;4954459;29;20724;-83
2021/11/23 01:04:36;;;;;;;17.20;15.50;;;;;;;;;;4955079;29;20194;-83
2021/11/23 01:07:05;;;;;;;21.23;17.23;;;;;;;;;;4954879;29;20285;-83
2021/11/23 01:09:32;;;;;;;19.97;17.57;;;;;;;;;;4954630;29;20297;-83
2021/11/23 01:11:59;;;;;;;21.77;18.40;;;;;;;;;;4954922;29;20613;-83
2021/11/23 01:14:27;;;;;;;21.27;16.73;;;;;;;;;;4954612;29;20292;-83
2021/11/23 01:16:54;;;;;;;19.73;17.23;;;;;;;;;;4954960;29;20202;-83
2021/11/23 01:19:23;;;;;;;21.63;16.50;;;;;;;;;;4954425;29;20205;-83
2021/11/23 01:21:50;;;;;;;16.23;13.97;;;;;;;;;;4955476;28;20228;-85
2021/11/23 01:24:19;;;;;;;14.93;12.73;;;;;;;;;;4957681;28;20206;-85
2021/11/23 01:26:47;;;;;;;15.47;13.83;;;;;;;;;;4955006;28;20229;-86
2021/11/23 01:29:14;;;;;;;17.17;14.73;;;;;;;;;;4954734;29;20642;-84
2021/11/23 01:31:42;;;;;;;19.40;14.40;;;;;;;;;;4954007;29;20260;-84
2021/11/23 01:34:09;;;;;;;16.30;13.53;;;;;;;;;;4954415;29;20210;-85
2021/11/23 01:36:37;;;;;;;15.73;13.83;;;;;;;;;;4954655;29;20585;-86
2021/11/23 01:39:04;;;;;;;16.93;15.10;;;;;;;;;;4954465;28;20261;-86
2021/11/23 01:41:33;;;;;;;20.00;14.13;;;;;;;;;;4954242;29;20230;-86
2021/11/23 01:44:00;;;;;;;15.90;14.23;;;;;;;;;;4954597;29;20205;-85
2021/11/23 01:46:28;;;;;;;17.77;15.30;;;;;;;;;;4954533;29;20249;-85
2021/11/23 01:48:55;;;;;;;17.10;15.37;;;;;;;;;;4954263;29;20631;-85
2021/11/23 01:51:22;;;;;;;16.73;14.13;;;;;;;;;;4954128;28;20205;-85
2021/11/23 01:53:50;;;;;;;16.17;14.50;;;;;;;;;;4954002;29;20233;-85
2021/11/23 01:56:17;;;;;;;18.67;14.90;;;;;;;;;;4953714;29;20237;-85
2021/11/23 01:58:46;;;;;;;17.07;15.17;;;;;;;;;;4954011;29;20265;-85
2021/11/23 02:01:13;;;;;;;16.03;14.40;;;;;;;;;;4953756;29;20316;-85
2021/11/23 02:03:41;;;;;;;15.23;13.67;;;;;;;;;;4953635;29;20241;-84
2021/11/23 02:06:08;;;;;;;14.93;13.10;;;;;;;;;;4953839;28;20209;-85
2021/11/23 02:08:36;;;;;;;16.67;14.07;;;;;;;;;;4954113;29;20648;-85
2021/11/23 02:11:04;;;;;;;14.07;12.53;;;;;;;;;;4953884;29;20241;-85
2021/11/23 02:13:31;;;;;;;14.23;12.73;;;;;;;;;;4953737;28;20209;-83
2021/11/23 02:16:00;;;;;;;16.70;13.30;;;;;;;;;;4953410;29;20256;-84
2021/11/23 02:18:29;;;;;;;15.33;13.73;;;;;;;;;;4953854;29;20205;-84
2021/11/23 02:20:58;;;;;;;16.23;13.30;;;;;;;;;;4953494;29;20201;-84
2021/11/23 02:23:25;;;;;;;15.80;13.10;;;;;;;;;;4953988;28;20663;-84
2021/11/23 02:25:53;;;;;;;15.63;13.87;;;;;;;;;;4953590;29;20201;-84
2021/11/23 02:28:20;;;;;;;14.47;13.00;;;;;;;;;;4953987;29;20579;-84
2021/11/23 02:30:50;;;;;;;17.27;14.70;;;;;;;;;;4953518;28;20205;-84
2021/11/23 02:33:20;;;;;;;19.37;15.97;;;;;;;;;;4954062;29;20209;-84
2021/11/23 02:35:48;;;;;;;16.63;14.23;;;;;;;;;;4953568;29;20224;-84
2021/11/23 02:38:18;;;;;;;15.93;12.23;;;;;;;;;;4953507;28;20621;-84
2021/11/23 02:40:46;;;;;;;15.17;13.57;;;;;;;;;;4953272;29;20296;-84
2021/11/23 02:43:13;;;;;;;13.43;11.97;;;;;;;;;;4953544;29;20201;-85
2021/11/23 02:45:40;;;;;;;16.83;13.23;;;;;;;;;;4953421;28;20675;-85
2021/11/23 02:48:08;;;;;;;16.77;12.77;;;;;;;;;;4953643;29;20286;-85
2021/11/23 02:50:36;;;;;;;19.03;14.10;;;;;;;;;;4953564;28;20198;-86
2021/11/23 02:53:03;;;;;;;16.43;14.73;;;;;;;;;;4957761;28;20198;-84
2021/11/23 02:55:35;;;;;;;16.53;14.70;;;;;;;;;;4957116;29;20202;-84
2021/11/23 02:58:04;;;;;;;17.00;13.73;;;;;;;;;;4957592;29;20190;-85
2021/11/23 03:00:32;;;;;;;17.83;15.27;;;;;;;;;;4957240;29;20253;-85
2021/11/23 03:03:00;;;;;;;18.33;14.27;;;;;;;;;;4956941;28;20237;-83
2021/11/23 03:05:28;;;;;;;15.47;13.60;;;;;;;;;;4956620;29;20237;-83
2021/11/23 03:07:56;;;;;;;15.97;14.27;;;;;;;;;;4956690;29;20687;-82
2021/11/23 03:10:24;;;;;;;15.77;14.13;;;;;;;;;;4956921;29;20258;-83
2021/11/23 03:12:55;;;;;;;15.83;14.17;;;;;;;;;;4956872;28;20206;-83
2021/11/23 03:15:22;;;;;;;16.37;14.67;;;;;;;;;;4956794;29;20201;-83
2021/11/23 03:17:50;;;;;;;17.70;13.90;;;;;;;;;;4956744;28;20202;-83
2021/11/23 03:20:19;;;;;;;16.13;14.33;;;;;;;;;;4956506;29;20201;-83
2021/11/23 03:22:47;;;;;;;17.90;15.23;;;;;;;;;;4956257;29;20707;-82
2021/11/23 03:25:14;;;;;;;15.47;13.93;;;;;;;;;;4956408;29;20222;-82
2021/11/23 03:27:42;;;;;;;19.87;15.23;;;;;;;;;;4956222;28;20213;-83
2021/11/23 03:30:12;;;;;;;18.87;16.00;;;;;;;;;;4956321;29;20209;-83
2021/11/23 03:32:39;;;;;;;16.60;14.53;;;;;;;;;;4955535;28;20201;-82
2021/11/23 03:35:08;;;;;;;15.77;13.97;;;;;;;;;;4955841;29;20671;-83
2021/11/23 03:37:35;;;;;;;16.03;13.47;;;;;;;;;;4956364;29;20210;-83
2021/11/23 03:40:04;;;;;;;13.83;12.20;;;;;;;;;;4956624;28;20206;-82
2021/11/23 03:42:31;;;;;;;14.50;12.47;;;;;;;;;;4956434;28;20339;-83
2021/11/23 03:44:59;;;;;;;14.97;12.97;;;;;;;;;;4956273;29;20202;-83
2021/11/23 03:47:28;;;;;;;13.43;12.07;;;;;;;;;;4956244;29;20209;-83
2021/11/23 03:49:56;;;;;;;14.27;12.77;;;;;;;;;;4955321;28;20293;-83
2021/11/23 03:52:23;;;;;;;14.23;12.53;;;;;;;;;;4955659;28;20206;-84
2021/11/23 03:54:51;;;;;;;13.47;12.07;;;;;;;;;;4956291;28;20202;-85
2021/11/23 03:57:18;;;;;;;13.30;11.37;;;;;;;;;;4956399;29;20593;-84
2021/11/23 03:59:47;;;;;;;14.10;12.27;;;;;;;;;;4956480;28;20198;-85
2021/11/23 04:02:15;;;;;;;13.77;12.37;;;;;;;;;;4955455;28;20328;-85
2021/11/23 04:05:26;;;;;;;13.73;12.33;;;;;;;;;;4956708;29;20218;-84
2021/11/23 04:07:55;;;;;;;14.17;12.67;;;;;;;;;;4866601;29;20217;-85
2021/11/23 04:10:22;;;;;;;16.40;12.63;;;;;;;;;;4878654;29;20791;-85
2021/11/23 04:12:51;;;;;;;12.40;11.20;;;;;;;;;;4878302;29;20201;-84
2021/11/23 04:15:19;;;;;;;14.03;11.77;;;;;;;;;;4878055;29;20296;-84
2021/11/23 04:17:48;;;;;;;13.03;11.63;;;;;;;;;;4877309;29;20293;-85
2021/11/23 04:20:15;;;;;;;13.33;11.37;;;;;;;;;;4877402;29;20421;-86
2021/11/23 04:22:43;;;;;;;15.63;12.90;;;;;;;;;;4877357;29;20320;-85
2021/11/23 04:25:13;;;;;;;15.03;13.43;;;;;;;;;;4877285;29;20285;-85
2021/11/23 04:27:40;;;;;;;15.33;12.80;;;;;;;;;;4877336;29;20256;-85
2021/11/23 04:30:10;;;;;;;13.40;12.03;;;;;;;;;;4877042;29;20253;-85
2021/11/23 04:32:38;;;;;;;129.93;81.73;;;;;;;;;;4932263;29;20606;-85
2021/11/23 04:35:06;;;;;;;153.33;94.33;;;;;;;;;;4954377;29;20296;-84
2021/11/23 04:37:33;;;;;;;28.47;20.53;;;;;;;;;;4955232;28;20198;-84
2021/11/23 04:40:00;;;;;;;98.73;65.17;;;;;;;;;;4954993;29;20209;-86
2021/11/23 04:42:29;;;;;;;46.20;40.50;;;;;;;;;;4954766;29;20308;-86
2021/11/23 04:44:56;;;;;;;20.30;16.97;;;;;;;;;;4954325;28;20669;-86
2021/11/23 04:47:24;;;;;;;15.63;14.03;;;;;;;;;;4955032;28;20283;-85
2021/11/23 04:49:51;;;;;;;15.60;13.43;;;;;;;;;;4955008;29;20762;-86
2021/11/23 04:52:18;;;;;;;15.00;13.40;;;;;;;;;;4954600;29;20213;-85
2021/11/23 04:54:46;;;;;;;12.77;11.37;;;;;;;;;;4954654;28;20201;-85
2021/11/23 04:57:13;;;;;;;20.83;18.63;;;;;;;;;;4954327;29;20200;-85
2021/11/23 04:59:42;;;;;;;19.50;17.40;;;;;;;;;;4954771;28;20198;-86
2021/11/23 05:02:09;;;;;;;21.10;17.20;;;;;;;;;;4954198;28;20285;-86
2021/11/23 05:04:36;;;;;;;21.80;18.37;;;;;;;;;;4954547;28;20834;-86
2021/11/23 05:07:03;;;;;;;26.77;19.90;;;;;;;;;;4954356;29;20198;-85
2021/11/23 05:09:31;;;;;;;21.60;17.03;;;;;;;;;;4954373;28;20206;-86
2021/11/23 05:11:58;;;;;;;22.17;16.73;;;;;;;;;;4954226;28;20225;-85
2021/11/23 05:14:25;;;;;;;19.77;16.67;;;;;;;;;;4953687;28;20237;-87
2021/11/23 05:16:54;;;;;;;23.50;19.53;;;;;;;;;;4955217;28;20218;-86
2021/11/23 05:19:21;;;;;;;20.77;18.53;;;;;;;;;;4954800;29;20206;-86
2021/11/23 05:21:48;;;;;;;52.90;46.17;;;;;;;;;;4955038;28;20363;-87
2021/11/23 05:24:16;;;;;;;169.07;118.53;;;;;;;;;;4954666;29;20252;-87
2021/11/23 05:26:43;;;;;;;91.83;68.40;;;;;;;;;;4954528;28;20693;-86
2021/11/23 05:29:11;;;;;;;60.33;44.87;;;;;;;;;;4954799;28;20658;-85
2021/11/23 05:31:39;;;;;;;151.83;83.30;;;;;;;;;;4954244;29;20205;-86
2021/11/23 05:34:07;;;;;;;141.33;75.43;;;;;;;;;;4954567;29;20202;-86
2021/11/23 05:36:35;;;;;;;161.03;88.40;;;;;;;;;;4954586;29;20194;-86
2021/11/23 05:39:02;;;;;;;136.37;79.20;;;;;;;;;;4954881;28;20288;-86
2021/11/23 05:41:30;;;;;;;94.73;54.20;;;;;;;;;;4954695;28;20228;-86
2021/11/23 05:43:57;;;;;;;58.57;39.03;;;;;;;;;;4954568;28;20650;-86
2021/11/23 05:46:24;;;;;;;47.77;30.87;;;;;;;;;;4954385;28;20208;-86
2021/11/23 05:48:52;;;;;;;42.17;31.63;;;;;;;;;;4954389;28;20202;-86
2021/11/23 05:51:21;;;;;;;48.70;33.23;;;;;;;;;;4954349;28;20232;-86
2021/11/23 05:53:49;;;;;;;45.63;34.17;;;;;;;;;;4954229;29;20197;-86
2021/11/23 05:56:16;;;;;;;86.80;57.00;;;;;;;;;;4954257;28;20574;-86
2021/11/23 05:58:43;;;;;;;128.30;82.60;;;;;;;;;;4954251;29;20256;-86
2021/11/23 06:01:11;;;;;;;91.10;61.63;;;;;;;;;;4954464;29;20210;-86
2021/11/23 06:03:38;;;;;;;68.17;49.23;;;;;;;;;;4954140;29;20237;-86
2021/11/23 06:06:05;;;;;;;73.90;50.00;;;;;;;;;;4954076;29;20213;-87
2021/11/23 06:08:34;;;;;;;73.47;46.57;;;;;;;;;;4954235;29;20758;-86
2021/11/23 06:11:01;;;;;;;56.27;41.20;;;;;;;;;;4954328;28;20202;-86
2021/11/23 06:13:29;;;;;;;56.33;40.10;;;;;;;;;;4953936;28;20194;-86
2021/11/23 06:15:56;;;;;;;43.60;32.53;;;;;;;;;;4953962;29;20209;-86
2021/11/23 06:18:23;;;;;;;39.43;29.23;;;;;;;;;;4953961;29;20206;-86
2021/11/23 06:20:53;;;;;;;93.80;57.90;;;;;;;;;;4953844;28;20205;-86
2021/11/23 06:23:21;;;;;;;196.73;125.70;;;;;;;;;;4954272;29;20247;-86
2021/11/23 06:25:51;;;;;;;242.93;145.83;;;;;;;;;;4955526;28;20988;-87
2021/11/23 06:28:20;;;;;;;152.40;95.27;;;;;;;;;;4958264;29;20193;-86
2021/11/23 06:30:48;;;;;;;126.43;77.97;;;;;;;;;;4957837;28;20205;-86
2021/11/23 06:33:15;;;;;;;71.33;48.03;;;;;;;;;;4957983;28;20201;-86
2021/11/23 06:35:43;;;;;;;44.57;32.07;;;;;;;;;;4957730;28;20288;-86
2021/11/23 06:38:11;;;;;;;45.20;31.50;;;;;;;;;;4958189;29;20634;-86
2021/11/23 06:40:39;;;;;;;48.17;37.37;;;;;;;;;;4957800;28;20206;-86
2021/11/23 06:43:08;;;;;;;324.47;221.47;;;;;;;;;;4957663;29;20818;-86
2021/11/23 06:45:36;;;;;;;130.70;88.00;;;;;;;;;;4957522;28;20269;-86
2021/11/23 06:48:04;;;;;;;39.40;28.63;;;;;;;;;;4954211;28;20214;-86
2021/11/23 06:50:35;;;;;;;29.63;24.20;;;;;;;;;;4957874;29;20220;-87
2021/11/23 06:53:03;;;;;;;20.73;16.27;;;;;;;;;;4957916;29;20273;-86
2021/11/23 06:55:31;;;;;;;24.87;17.63;;;;;;;;;;4957339;29;20224;-86
2021/11/23 06:57:58;;;;;;;30.43;22.17;;;;;;;;;;4957428;29;20585;-87
2021/11/23 07:00:27;;;;;;;27.83;18.13;;;;;;;;;;4957140;29;20209;-87
2021/11/23 07:02:55;;;;;;;18.93;16.00;;;;;;;;;;4957392;29;20621;-87
2021/11/23 07:05:22;;;;;;;22.37;17.60;;;;;;;;;;4957633;29;20620;-85
2021/11/23 07:07:49;;;;;;;27.00;20.50;;;;;;;;;;4957703;28;20587;-87
2021/11/23 07:10:16;;;;;;;244.10;148.47;;;;;;;;;;4957227;29;20257;-87
2021/11/23 07:12:44;;;;;;;174.60;111.43;;;;;;;;;;4957308;29;20563;-87
2021/11/23 07:15:11;;;;;;;70.97;46.23;;;;;;;;;;4956417;29;20229;-87
2021/11/23 07:17:40;;;;;;;32.33;24.17;;;;;;;;;;4956567;29;20208;-87
2021/11/23 07:20:08;;;;;;;20.00;14.43;;;;;;;;;;4957068;29;20744;-87
2021/11/23 07:22:36;;;;;;;17.40;13.53;;;;;;;;;;4957004;29;20233;-86
2021/11/23 07:25:04;;;;;;;19.23;14.77;;;;;;;;;;4956760;29;20237;-86
2021/11/23 07:27:31;;;;;;;19.10;16.13;;;;;;;;;;4957055;29;20205;-86
2021/11/23 07:29:58;;;;;;;24.17;18.97;;;;;;;;;;4956580;29;20202;-86
2021/11/23 07:32:25;;;;;;;24.30;19.67;;;;;;;;;;4956807;29;20205;-87
2021/11/23 07:34:54;;;;;;;19.27;15.37;;;;;;;;;;4956629;29;20695;-87
2021/11/23 07:37:21;;;;;;;15.30;13.17;;;;;;;;;;4955948;28;20206;-86
2021/11/23 07:39:49;;;;;;;14.80;12.80;;;;;;;;;;4956979;29;20232;-86
2021/11/23 07:42:16;;;;;;;12.23;11.03;;;;;;;;;;4956604;29;20206;-86
2021/11/23 07:44:43;;;;;;;15.40;12.80;;;;;;;;;;4956845;29;20232;-86
2021/11/23 07:47:11;;;;;;;12.77;11.47;;;;;;;;;;4956469;29;20202;-87
2021/11/23 07:49:38;;;;;;;48.63;35.00;;;;;;;;;;4956198;29;20285;-87
2021/11/23 07:52:07;;;;;;;20.20;15.80;;;;;;;;;;4956529;29;20202;-86
2021/11/23 07:54:34;;;;;;;14.27;12.77;;;;;;;;;;4956361;29;20240;-86
2021/11/23 07:57:01;;;;;;;15.27;12.87;;;;;;;;;;4956216;29;20208;-87
2021/11/23 07:59:29;;;;;;;26.70;23.93;;;;;;;;;;4956546;29;20201;-87
2021/11/23 08:01:56;;;;;;;16.93;14.23;;;;;;;;;;4956169;29;20213;-86
2021/11/23 08:04:23;;;;;;;22.00;17.73;;;;;;;;;;4956217;29;20587;-86
2021/11/23 08:06:50;;;;;;;18.50;13.50;;;;;;;;;;4956538;29;20206;-87
2021/11/23 08:09:19;;;;;;;15.30;13.70;;;;;;;;;;4956119;29;20225;-86
2021/11/23 08:11:46;;;;;;;14.27;11.83;;;;;;;;;;4956315;29;20204;-87
2021/11/23 08:14:14;;;;;;;12.27;11.07;;;;;;;;;;4956215;29;20228;-87
2021/11/23 08:16:41;;;;;;;10.83;9.77;;;;;;;;;;4956172;29;20284;-86
2021/11/23 08:19:09;;;;;;;15.30;10.20;;;;;;;;;;4956170;29;20274;-86
2021/11/23 08:21:36;;;;;;;13.90;11.33;;;;;;;;;;4956172;29;20781;-87
2021/11/23 08:24:03;;;;;;;14.33;11.53;;;;;;;;;;4955972;29;20633;-86
2021/11/23 08:26:32;;;;;;;13.43;11.33;;;;;;;;;;4956040;29;20681;-87
2021/11/23 08:29:00;;;;;;;20.00;17.67;;;;;;;;;;4956031;29;20198;-87
2021/11/23 08:31:27;;;;;;;20.50;18.30;;;;;;;;;;4956267;29;20216;-87
2021/11/23 08:33:54;;;;;;;22.57;17.60;;;;;;;;;;4955864;29;20198;-87
2021/11/23 08:36:21;;;;;;;21.37;17.77;;;;;;;;;;4955692;29;20221;-87
2021/11/23 08:38:49;;;;;;;16.63;13.77;;;;;;;;;;4955769;29;20197;-87
2021/11/23 08:41:17;;;;;;;15.73;14.13;;;;;;;;;;4955590;29;20209;-87
2021/11/23 08:43:45;;;;;;;17.53;15.53;;;;;;;;;;4955904;29;20236;-87
2021/11/23 08:46:13;;;;;;;41.70;35.43;;;;;;;;;;4955668;28;20206;-87
2021/11/23 08:48:40;;;;;;;34.43;27.43;;;;;;;;;;4954921;28;20294;-87
2021/11/23 08:51:10;;;;;;;13.70;11.80;;;;;;;;;;4955488;29;20218;-87
2021/11/23 08:53:38;;;;;;;11.37;8.60;;;;;;;;;;4955562;29;20194;-86
2021/11/23 08:56:05;;;;;;;11.77;9.53;;;;;;;;;;4955010;29;20206;-87
2021/11/23 08:58:33;;;;;;;14.17;12.77;;;;;;;;;;4955675;29;20198;-87
2021/11/23 09:01:02;;;;;;;13.53;12.33;;;;;;;;;;4955563;29;20629;-87
2021/11/23 09:03:29;;;;;;;12.67;11.37;;;;;;;;;;4954934;29;20268;-86
2021/11/23 09:05:56;;;;;;;12.20;10.27;;;;;;;;;;4955328;29;20236;-86
2021/11/23 09:08:24;;;;;;;12.63;11.37;;;;;;;;;;4955223;29;20216;-87
2021/11/23 09:10:51;;;;;;;12.23;10.97;;;;;;;;;;4954804;29;20241;-86
2021/11/23 09:13:18;;;;;;;11.43;10.23;;;;;;;;;;4955428;29;20281;-87
2021/11/23 09:15:46;;;;;;;11.50;10.33;;;;;;;;;;4955059;29;20202;-86
2021/11/23 09:18:14;;;;;;;12.00;9.97;;;;;;;;;;4955259;29;20213;-86
2021/11/23 09:20:43;;;;;;;11.97;10.77;;;;;;;;;;4954958;29;20208;-86
2021/11/23 09:23:12;;;;;;;9.80;8.90;;;;;;;;;;4954897;29;20206;-86
2021/11/23 09:25:40;;;;;;;12.20;10.43;;;;;;;;;;4955086;29;20288;-86
2021/11/23 09:28:07;;;;;;;11.20;10.03;;;;;;;;;;4954889;29;20749;-87
2021/11/23 09:30:35;;;;;;;12.67;10.80;;;;;;;;;;4954745;29;20224;-86
2021/11/23 09:33:03;;;;;;;12.53;11.20;;;;;;;;;;4954656;29;20256;-87
2021/11/23 09:35:32;;;;;;;12.53;10.00;;;;;;;;;;4954482;29;20293;-86
2021/11/23 09:38:00;;;;;;;10.93;8.70;;;;;;;;;;4954660;29;20213;-87
2021/11/23 09:40:29;;;;;;;15.13;10.40;;;;;;;;;;4954791;29;20233;-86
2021/11/23 09:42:56;;;;;;;10.57;9.47;;;;;;;;;;4954573;29;20670;-87
2021/11/23 09:45:24;;;;;;;9.53;8.30;;;;;;;;;;4954111;28;20230;-87
2021/11/23 09:47:51;;;;;;;10.00;8.40;;;;;;;;;;4954724;29;20261;-87
2021/11/23 09:50:19;;;;;;;10.70;9.43;;;;;;;;;;4954477;29;20638;-87
2021/11/23 09:52:48;;;;;;;20.17;17.30;;;;;;;;;;4954448;29;20198;-87
2021/11/23 09:55:17;;;;;;;10.90;9.47;;;;;;;;;;4954112;29;20205;-87
2021/11/23 09:57:44;;;;;;;10.47;9.47;;;;;;;;;;4954457;29;20203;-86
2021/11/23 10:00:29;;;;;;;11.37;10.20;;;;;;;;;;4953914;28;20189;-86
2021/11/23 10:03:01;;;;;;;13.03;11.83;;;;;;;;;;4954585;29;20321;-86
2021/11/23 10:05:33;;;;;;;10.30;9.30;;;;;;;;;;4954509;29;20629;-86
2021/11/23 10:08:10;;;;;;;11.50;10.37;;;;;;;;;;4954379;29;20190;-86
2021/11/23 10:10:47;;;;;;;11.23;10.07;;;;;;;;;;4954427;28;20205;-86
2021/11/23 10:13:16;;;;;;;11.80;9.43;;;;;;;;;;4954485;28;20614;-86
2021/11/23 10:15:46;;;;;;;11.10;10.00;;;;;;;;;;4954302;29;20205;-87
2021/11/23 10:18:15;;;;;;;12.17;10.90;;;;;;;;;;4954270;29;20185;-87
2021/11/23 10:20:44;;;;;;;10.97;9.87;;;;;;;;;;4953688;29;20202;-86
2021/11/23 10:23:27;;;;;;;11.50;9.80;;;;;;;;;;4954266;29;20233;-86
2021/11/23 10:25:56;;;;;;;11.77;10.57;;;;;;;;;;4954167;29;20210;-86
2021/11/23 10:28:27;;;;;;;13.67;11.47;;;;;;;;;;4953923;29;20202;-86
2021/11/23 10:30:54;;;;;;;12.37;10.03;;;;;;;;;;4953828;29;20202;-86
2021/11/23 10:33:22;;;;;;;12.50;10.80;;;;;;;;;;4954024;29;20210;-86
2021/11/23 10:35:52;;;;;;;22.13;17.57;;;;;;;;;;4954053;29;20198;-86
2021/11/23 10:38:20;;;;;;;27.83;20.23;;;;;;;;;;4954259;29;20648;-87
2021/11/23 10:40:50;;;;;;;12.53;9.53;;;;;;;;;;4953711;29;20201;-87
2021/11/23 10:43:18;;;;;;;16.93;12.93;;;;;;;;;;4953949;29;20198;-86
2021/11/23 10:45:48;;;;;;;12.63;11.33;;;;;;;;;;4953698;29;20198;-87
2021/11/23 10:48:17;;;;;;;14.57;12.37;;;;;;;;;;4954088;29;20201;-87
2021/11/23 10:50:57;;;;;;;16.20;12.53;;;;;;;;;;4953586;29;20208;-87
2021/11/23 10:53:25;;;;;;;14.03;12.63;;;;;;;;;;4953912;29;20194;-87
2021/11/23 10:55:54;;;;;;;14.53;12.80;;;;;;;;;;4953959;29;20574;-87
2021/11/23 10:58:21;;;;;;;16.77;13.30;;;;;;;;;;4954084;29;20197;-87
2021/11/23 11:00:49;;;;;;;15.30;13.33;;;;;;;;;;4953588;29;20202;-87
2021/11/23 11:03:17;;;;;;;17.13;15.10;;;;;;;;;;4953463;29;20324;-87
2021/11/23 11:05:46;;;;;;;21.90;15.13;;;;;;;;;;4953663;29;20702;-87
2021/11/23 11:08:15;;;;;;;18.07;15.97;;;;;;;;;;4953663;29;20638;-87
2021/11/23 11:10:42;;;;;;;22.93;20.20;;;;;;;;;;4953455;28;20209;-86
2021/11/23 11:13:12;;;;;;;15.33;13.83;;;;;;;;;;4955530;28;20693;-87
2021/11/23 11:15:41;;;;;;;17.53;14.63;;;;;;;;;;4957562;29;20578;-87
2021/11/23 11:18:12;;;;;;;13.63;12.23;;;;;;;;;;4957269;29;20679;-87
2021/11/23 11:20:44;;;;;;;14.77;13.17;;;;;;;;;;4957107;29;20733;-87
2021/11/23 11:23:14;;;;;;;13.97;12.13;;;;;;;;;;4957124;29;20213;-87
2021/11/23 11:28:55;;;;;;;19.13;14.00;;;;;;;;;;4956541;29;20686;-87
2021/11/23 11:31:41;;;;;;;14.33;12.83;;;;;;;;;;4957380;29;20213;-86
2021/11/23 11:34:23;;;;;;;16.50;14.77;;;;;;;;;;4956897;29;20280;-87
2021/11/23 11:36:59;;;;;;;15.60;13.70;;;;;;;;;;4957460;29;20221;-87
2021/11/23 11:39:58;;;;;;;15.07;12.67;;;;;;;;;;4956522;29;20190;-87
2021/11/23 11:42:50;;;;;;;12.10;10.83;;;;;;;;;;4942005;29;20264;-85
2021/11/23 11:45:21;;;;;;;13.13;11.73;;;;;;;;;;4956849;29;20268;-87
2021/11/23 11:47:49;;;;;;;15.37;12.40;;;;;;;;;;4956782;29;20206;-86
2021/11/23 11:50:25;;;;;;;12.27;10.83;;;;;;;;;;4956626;29;20236;-87
2021/11/23 11:53:09;;;;;;;10.50;9.50;;;;;;;;;;4956523;29;20201;-87
2021/11/23 11:55:47;;;;;;;9.40;8.40;;;;;;;;;;4956650;29;20628;-86
2021/11/23 11:58:15;;;;;;;9.50;8.50;;;;;;;;;;4956667;29;20257;-86
2021/11/23 12:00:43;;;;;;;8.73;7.57;;;;;;;;;;4956595;29;20210;-87
2021/11/23 12:03:35;;;;;;;8.57;7.40;;;;;;;;;;4956333;29;20273;-85
2021/11/23 12:06:06;;;;;;;9.03;7.80;;;;;;;;;;4945696;29;20243;-86
2021/11/23 12:08:35;;;;;;;10.47;9.47;;;;;;;;;;4956334;29;20208;-86
2021/11/23 12:11:04;;;;;;;15.10;12.10;;;;;;;;;;4955965;29;20202;-86
2021/11/23 12:13:35;;;;;;;28.10;20.03;;;;;;;;;;4956043;29;20297;-86
2021/11/23 12:16:14;;;;;;;21.13;18.07;;;;;;;;;;4956039;29;20241;-86
2021/11/23 12:19:06;;;;;;;11.37;8.63;;;;;;;;;;4956291;29;20192;-85
2021/11/23 12:21:34;;;;;;;18.80;14.03;;;;;;;;;;4956184;29;20681;-86
2021/11/23 12:24:03;;;;;;;22.37;16.17;;;;;;;;;;4955942;28;20207;-86
2021/11/23 12:26:34;;;;;;;17.87;13.07;;;;;;;;;;4955884;29;20202;-86
2021/11/23 12:29:03;;;;;;;31.43;21.17;;;;;;;;;;4955801;29;20226;-87
2021/11/23 12:31:34;;;;;;;28.33;21.13;;;;;;;;;;4955627;29;20297;-87
2021/11/23 12:34:04;;;;;;;43.57;32.70;;;;;;;;;;4955795;29;20194;-86
2021/11/23 12:36:35;;;;;;;29.83;22.70;;;;;;;;;;4955698;29;20253;-87
2021/11/23 12:39:11;;;;;;;10.07;8.73;;;;;;;;;;4955489;29;20194;-86
2021/11/23 12:41:38;;;;;;;6.77;6.07;;;;;;;;;;4955770;29;20185;-87
2021/11/23 12:44:16;;;;;;;6.67;5.67;;;;;;;;;;4955816;29;20561;-86
2021/11/23 12:46:53;;;;;;;6.50;5.90;;;;;;;;;;4955490;29;20186;-86
2021/11/23 12:49:20;;;;;;;5.67;5.17;;;;;;;;;;4955430;29;20666;-85
2021/11/23 12:51:54;;;;;;;8.07;7.17;;;;;;;;;;4955453;29;20194;-85
2021/11/23 12:54:25;;;;;;;5.43;3.97;;;;;;;;;;4955400;29;20186;-86
2021/11/23 12:57:00;;;;;;;10.37;8.60;;;;;;;;;;4955074;29;20186;-86
2021/11/23 12:59:29;;;;;;;7.83;5.23;;;;;;;;;;4955425;29;20201;-86
2021/11/23 13:02:00;;;;;;;7.03;6.33;;;;;;;;;;4955405;29;20624;-86
2021/11/23 13:04:40;;;;;;;14.67;11.10;;;;;;;;;;4955155;29;20210;-86
2021/11/23 13:07:09;;;;;;;12.67;10.20;;;;;;;;;;4955025;29;20556;-86
2021/11/23 13:09:54;;;;;;;6.13;5.53;;;;;;;;;;4954988;29;20209;-86
2021/11/23 13:12:23;;;;;;;10.30;6.77;;;;;;;;;;4955513;29;20552;-86
2021/11/23 13:14:55;;;;;;;15.90;13.00;;;;;;;;;;4954735;29;20206;-86
2021/11/23 13:17:47;;;;;;;4.27;3.17;;;;;;;;;;4955060;29;20249;-86
2021/11/23 13:20:18;;;;;;;3.70;3.40;;;;;;;;;;4955372;29;20206;-86
2021/11/23 13:22:48;;;;;;;4.27;3.87;;;;;;;;;;4954933;29;20233;-85
2021/11/23 13:25:16;;;;;;;3.97;3.67;;;;;;;;;;4954712;29;20214;-86
2021/11/23 13:27:43;;;;;;;2.60;2.40;;;;;;;;;;4954881;29;20663;-86
2021/11/23 13:30:33;;;;;;;4.23;3.60;;;;;;;;;;4954700;29;20209;-86
2021/11/23 13:33:07;;;;;;;7.50;3.07;;;;;;;;;;4954540;29;20268;-86
2021/11/23 13:35:34;;;;;;;2.70;2.50;;;;;;;;;;4954093;28;20187;-86
2021/11/23 13:38:02;;;;;;;2.90;2.70;;;;;;;;;;4955028;29;20202;-86
2021/11/23 13:40:29;;;;;;;2.90;2.70;;;;;;;;;;4954317;29;20202;-86
2021/11/23 13:42:56;;;;;;;2.60;2.40;;;;;;;;;;4954458;29;20209;-86
2021/11/23 13:45:25;;;;;;;2.90;2.70;;;;;;;;;;4954246;29;20229;-86
2021/11/23 13:47:52;;;;;;;3.30;3.00;;;;;;;;;;4954643;29;20297;-86
2021/11/23 13:50:21;;;;;;;6.33;5.20;;;;;;;;;;4954236;29;20289;-86
2021/11/23 13:52:53;;;;;;;6.17;5.57;;;;;;;;;;4954329;29;20205;-85
2021/11/23 13:55:26;;;;;;;5.40;4.90;;;;;;;;;;4954516;29;20194;-85
2021/11/23 13:57:54;;;;;;;4.17;3.77;;;;;;;;;;4954652;29;20193;-85
2021/11/23 14:00:23;;;;;;;13.70;12.23;;;;;;;;;;4954238;29;20241;-85
2021/11/23 14:02:55;;;;;;;3.10;2.90;;;;;;;;;;4954351;29;20672;-86
2021/11/23 14:05:41;;;;;;;3.70;3.40;;;;;;;;;;4954262;29;20305;-86
2021/11/23 14:08:10;;;;;;;5.37;4.37;;;;;;;;;;4954434;29;20186;-85
2021/11/23 14:10:39;;;;;;;10.63;9.10;;;;;;;;;;4953879;29;20209;-86
2021/11/23 14:13:08;;;;;;;4.63;4.20;;;;;;;;;;4954160;29;20198;-86
2021/11/23 14:15:40;;;;;;;9.00;7.70;;;;;;;;;;4953942;29;20680;-86
2021/11/23 14:18:13;;;;;;;8.03;7.23;;;;;;;;;;4954160;29;20205;-86
2021/11/23 14:20:58;;;;;;;4.77;4.30;;;;;;;;;;4953888;29;20234;-86
2021/11/23 14:23:28;;;;;;;5.43;4.80;;;;;;;;;;4954320;29;20194;-86
2021/11/23 14:26:01;;;;;;;3.40;3.20;;;;;;;;;;4953975;29;20281;-85
2021/11/23 14:28:28;;;;;;;3.67;3.37;;;;;;;;;;4954494;29;20252;-85
2021/11/23 14:30:56;;;;;;;4.47;3.87;;;;;;;;;;4954132;29;20215;-86
2021/11/23 14:33:25;;;;;;;4.60;4.20;;;;;;;;;;4953698;29;20221;-86
2021/11/23 14:35:54;;;;;;;4.07;3.60;;;;;;;;;;4954048;29;20198;-86